createdAt,value
2018-08-09T00:03:25.483Z,3.30
2018-08-09T00:08:28.826Z,4.23
2018-08-09T00:13:32.204Z,3.40
2018-08-09T00:18:35.493Z,3.60
2018-08-09T00:23:38.783Z,4.20
2018-08-09T00:28:42.078Z,3.43
2018-08-09T00:33:45.338Z,4.07
2018-08-09T00:38:48.348Z,3.77
2018-08-09T00:43:51.605Z,3.67
2018-08-09T00:48:55.106Z,3.33
2018-08-09T00:53:58.833Z,3.80
2018-08-09T00:59:02.604Z,3.97
2018-08-09T01:04:06.248Z,4.30
2018-08-09T01:09:14.334Z,4.03
2018-08-09T01:14:17.857Z,4.13
2018-08-09T01:19:21.433Z,4.10
2018-08-09T01:24:24.964Z,3.80
2018-08-09T01:29:28.269Z,3.60
2018-08-09T01:34:31.760Z,3.77
2018-08-09T01:39:35.044Z,3.73
2018-08-09T01:44:38.317Z,4.47
2018-08-09T01:49:41.784Z,3.70
2018-08-09T01:54:45.049Z,4.13
2018-08-09T01:59:48.321Z,4.27
2018-08-09T02:04:51.647Z,4.47
2018-08-09T02:09:55.001Z,4.20
2018-08-09T02:14:58.292Z,4.28
2018-08-09T02:20:01.601Z,4.10
2018-08-09T02:25:05.165Z,4.23
2018-08-09T02:30:08.578Z,4.37
2018-08-09T02:35:11.833Z,3.77
2018-08-09T02:40:15.108Z,3.47
2018-08-09T02:45:18.529Z,4.50
2018-08-09T02:50:21.612Z,3.93
2018-08-09T02:55:24.870Z,4.40
2018-08-09T03:00:28.136Z,3.83
2018-08-09T03:05:31.567Z,4.20
2018-08-09T03:10:34.822Z,4.53
2018-08-09T03:15:38.080Z,4.83
2018-08-09T03:20:41.416Z,4.93
2018-08-09T03:25:44.670Z,4.07
2018-08-09T03:30:48.041Z,4.57
2018-08-09T03:35:51.334Z,4.07
2018-08-09T03:40:54.628Z,4.10
2018-08-09T03:45:57.968Z,4.20
2018-08-09T03:51:01.230Z,3.90
2018-08-09T03:56:04.809Z,3.73
2018-08-09T04:01:08.313Z,4.23
2018-08-09T04:06:11.587Z,3.63
2018-08-09T04:11:15.094Z,4.57
2018-08-09T04:16:18.389Z,4.10
2018-08-09T04:21:22.387Z,4.62
2018-08-09T04:26:25.696Z,4.90
2018-08-09T04:31:29.149Z,4.90
2018-08-09T04:36:32.439Z,4.77
2018-08-09T04:41:35.897Z,4.37
2018-08-09T04:46:39.286Z,5.30
2018-08-09T04:51:42.608Z,4.20
2018-08-09T04:56:45.920Z,4.63
2018-08-09T05:01:49.251Z,4.60
2018-08-09T05:06:52.548Z,4.40
2018-08-09T05:11:55.823Z,4.70
2018-08-09T05:16:59.072Z,4.47
2018-08-09T05:22:02.467Z,4.87
2018-08-09T05:27:05.741Z,4.47
2018-08-09T05:32:09.001Z,4.83
2018-08-09T05:37:12.353Z,4.30
2018-08-09T05:42:15.628Z,5.03
2018-08-09T05:47:18.921Z,5.57
2018-08-09T05:52:22.213Z,5.00
2018-08-09T05:57:25.634Z,5.17
2018-08-09T06:02:28.933Z,4.03
2018-08-09T06:07:32.318Z,4.73
2018-08-09T06:12:35.692Z,4.40
2018-08-09T06:17:38.984Z,5.40
2018-08-09T06:22:42.249Z,4.87
2018-08-09T06:27:45.613Z,4.00
2018-08-09T06:32:49.053Z,4.37
2018-08-09T06:37:52.437Z,4.93
2018-08-09T06:42:55.712Z,4.57
2018-08-09T06:47:59.189Z,4.80
2018-08-09T06:53:02.565Z,3.90
2018-08-09T06:58:06.141Z,4.20
2018-08-09T07:03:09.429Z,4.10
2018-08-09T07:08:13.007Z,4.30
2018-08-09T07:13:16.276Z,4.37
2018-08-09T07:18:19.589Z,4.40
2018-08-09T07:23:22.892Z,3.83
2018-08-09T07:28:26.464Z,3.80
2018-08-09T07:33:29.737Z,3.50
2018-08-09T07:38:33.017Z,4.60
2018-08-09T07:43:36.422Z,3.97
2018-08-09T07:48:39.703Z,2.87
2018-08-09T07:53:42.958Z,2.40
2018-08-09T07:58:46.305Z,2.93
2018-08-09T08:03:49.667Z,2.90
2018-08-09T08:08:53.029Z,2.85
2018-08-09T08:13:56.350Z,2.60
2018-08-09T08:18:59.744Z,2.30
2018-08-09T08:24:03.170Z,2.00
2018-08-09T08:29:06.452Z,2.75
2018-08-09T08:34:09.790Z,2.45
2018-08-09T08:39:13.182Z,2.10
2018-08-09T08:44:16.459Z,3.08
2018-08-09T08:49:19.775Z,2.80
2018-08-09T08:54:23.089Z,2.30
2018-08-09T08:59:26.381Z,3.37
2018-08-09T09:04:29.665Z,2.98
2018-08-09T09:09:33.061Z,2.30
2018-08-09T09:14:36.349Z,3.37
2018-08-09T09:19:39.719Z,2.90
2018-08-09T09:24:43.011Z,3.05
2018-08-09T09:29:46.404Z,3.30
2018-08-09T09:34:49.810Z,3.00
2018-08-09T09:39:53.094Z,2.77
2018-08-09T09:44:56.562Z,2.90
2018-08-09T09:50:00.021Z,2.90
2018-08-09T09:55:03.390Z,2.70
2018-08-09T10:00:12.133Z,3.40
2018-08-09T10:05:15.880Z,2.92
2018-08-09T10:10:19.188Z,2.55
2018-08-09T10:15:22.469Z,2.83
2018-08-09T10:20:25.889Z,3.33
2018-08-09T10:25:29.165Z,2.90
2018-08-09T10:30:32.505Z,3.00
2018-08-09T10:35:35.836Z,2.67
2018-08-09T10:40:39.072Z,2.90
2018-08-09T10:45:42.340Z,3.30
2018-08-09T10:50:45.411Z,3.12
2018-08-09T10:55:48.684Z,2.45
2018-08-09T11:00:51.977Z,3.40
2018-08-09T11:05:55.241Z,3.35
2018-08-09T11:11:02.822Z,3.30
2018-08-09T11:16:06.109Z,2.70
2018-08-09T11:21:09.413Z,3.08
2018-08-09T11:26:12.950Z,3.17
2018-08-09T11:31:16.326Z,3.22
2018-08-09T11:36:19.609Z,3.58
2018-08-09T11:41:23.500Z,2.88
2018-08-09T11:46:26.888Z,2.85
2018-08-09T11:51:30.177Z,3.22
2018-08-09T11:56:33.514Z,3.05
2018-08-09T12:01:36.838Z,3.37
2018-08-09T12:06:40.148Z,2.98
2018-08-09T12:11:43.536Z,2.72
2018-08-09T12:16:46.822Z,3.60
2018-08-09T12:21:50.284Z,2.85
2018-08-09T12:26:53.627Z,3.77
2018-08-09T12:31:57.045Z,3.30
2018-08-09T12:37:00.486Z,2.80
2018-08-09T12:42:03.833Z,2.80
2018-08-09T12:47:07.332Z,3.25
2018-08-09T12:52:10.663Z,4.05
2018-08-09T12:57:13.916Z,3.37
2018-08-09T13:02:17.336Z,3.05
2018-08-09T13:07:20.657Z,2.87
2018-08-09T13:12:23.937Z,2.55
2018-08-09T13:17:27.262Z,3.70
2018-08-09T13:22:30.641Z,3.22
2018-08-09T13:27:33.970Z,3.17
2018-08-09T13:32:37.274Z,2.62
2018-08-09T13:37:40.657Z,2.92
2018-08-09T13:42:44.085Z,3.25
2018-08-09T13:47:47.378Z,3.20
2018-08-09T13:52:50.682Z,3.67
2018-08-09T13:57:54.118Z,2.05
2018-08-09T14:02:57.459Z,3.30
2018-08-09T14:08:00.750Z,2.72
2018-08-09T14:13:04.120Z,2.72
2018-08-09T14:18:07.626Z,2.95
2018-08-09T14:23:10.844Z,2.98
2018-08-09T14:28:14.211Z,2.77
2018-08-09T14:33:17.512Z,3.20
2018-08-09T14:38:20.789Z,3.72
2018-08-09T14:43:24.159Z,2.45
2018-08-09T14:48:27.425Z,2.90
2018-08-09T14:53:30.876Z,1.90
2018-08-09T14:58:34.178Z,2.80
2018-08-09T15:03:37.600Z,2.87
2018-08-09T15:08:40.915Z,2.83
2018-08-09T15:13:44.445Z,2.95
2018-08-09T15:18:47.826Z,2.83
2018-08-09T15:23:51.272Z,2.50
2018-08-09T15:28:54.728Z,2.55
2018-08-09T15:33:58.174Z,3.05
2018-08-09T15:39:01.631Z,2.70
2018-08-09T15:44:04.891Z,2.83
2018-08-09T15:49:08.184Z,2.55
2018-08-09T15:54:11.536Z,3.08
2018-08-09T15:59:14.922Z,4.97
2018-08-09T16:04:18.213Z,2.87
2018-08-09T16:09:21.586Z,3.20
2018-08-09T16:14:24.882Z,2.60
2018-08-09T16:19:28.302Z,2.50
2018-08-09T16:24:31.886Z,2.87
2018-08-09T16:29:35.237Z,3.12
2018-08-09T16:34:38.549Z,3.20
2018-08-09T16:39:41.854Z,1.62
2018-08-09T16:44:45.185Z,2.60
2018-08-09T16:49:48.641Z,2.83
2018-08-09T16:54:51.920Z,2.27
2018-08-09T16:59:55.307Z,2.67
2018-08-09T17:04:58.326Z,2.58
2018-08-09T17:10:01.963Z,2.65
2018-08-09T17:15:08.221Z,2.65
2018-08-09T17:20:21.117Z,2.20
2018-08-09T17:25:24.455Z,2.70
2018-08-09T17:30:28.604Z,3.30
2018-08-09T17:35:31.963Z,3.35
2018-08-09T17:40:35.272Z,3.17
2018-08-09T17:45:38.617Z,2.92
2018-08-09T17:50:42.010Z,3.42
2018-08-09T17:55:45.374Z,2.80
2018-08-09T18:00:48.483Z,3.02
2018-08-09T18:05:51.925Z,2.55
2018-08-09T18:10:55.320Z,3.05
2018-08-09T18:15:58.791Z,3.08
2018-08-09T18:21:02.311Z,2.80
2018-08-09T18:26:05.873Z,2.72
2018-08-09T18:31:09.253Z,2.87
2018-08-09T18:36:12.721Z,2.52
2018-08-09T18:41:16.177Z,2.47
2018-08-09T18:46:19.573Z,2.58
2018-08-09T18:51:23.022Z,2.52
2018-08-09T18:56:26.890Z,2.95
2018-08-09T19:01:30.187Z,2.40
2018-08-09T19:06:33.643Z,1.95
2018-08-09T19:11:36.938Z,2.30
2018-08-09T19:16:40.253Z,1.97
2018-08-09T19:21:43.569Z,2.30
2018-08-09T19:26:46.912Z,2.17
2018-08-09T19:31:50.319Z,2.25
2018-08-09T19:36:53.662Z,2.55
2018-08-09T19:41:56.942Z,2.40
2018-08-09T19:47:00.285Z,2.35
2018-08-09T19:52:03.649Z,2.37
2018-08-09T19:57:06.978Z,1.95
2018-08-09T20:02:10.511Z,2.33
2018-08-09T20:07:13.785Z,1.87
2018-08-09T20:12:17.050Z,2.35
2018-08-09T20:17:20.478Z,1.98
2018-08-09T20:22:23.810Z,2.37
2018-08-09T20:27:27.100Z,2.20
2018-08-09T20:32:30.368Z,1.95
2018-08-09T20:37:33.754Z,2.17
2018-08-09T20:42:37.390Z,1.90
2018-08-09T20:47:41.600Z,2.52
2018-08-09T20:52:46.519Z,2.30
2018-08-09T20:57:50.810Z,1.90
2018-08-09T21:02:55.736Z,1.63
2018-08-09T21:07:59.721Z,1.50
2018-08-09T21:13:03.532Z,1.77
2018-08-09T21:18:07.685Z,1.87
2018-08-09T21:23:11.289Z,1.60
2018-08-09T21:28:15.086Z,1.80
2018-08-09T21:33:20.696Z,1.57
2018-08-09T21:38:24.267Z,2.10
2018-08-09T21:43:27.593Z,2.00
2018-08-09T21:48:30.949Z,1.70
2018-08-09T21:53:34.267Z,1.60
2018-08-09T21:58:37.573Z,1.70
2018-08-09T22:03:40.973Z,2.53
2018-08-09T22:08:49.616Z,2.10
2018-08-09T22:13:58.233Z,2.07
2018-08-09T22:19:06.875Z,2.10
2018-08-09T22:24:10.113Z,1.80
2018-08-09T22:29:13.456Z,2.03
2018-08-09T22:34:16.905Z,2.03
2018-08-09T22:39:20.349Z,1.60
2018-08-09T22:44:23.837Z,2.03
2018-08-09T22:49:27.131Z,2.03
2018-08-09T22:54:30.548Z,2.00
2018-08-09T22:59:33.838Z,2.27
2018-08-09T23:04:37.133Z,2.10
2018-08-09T23:09:40.493Z,1.93
2018-08-09T23:14:43.881Z,2.17
2018-08-09T23:19:47.206Z,2.30
2018-08-09T23:24:50.537Z,2.27
2018-08-09T23:29:53.946Z,2.10
2018-08-09T23:34:57.368Z,2.00
2018-08-09T23:40:00.687Z,2.30
2018-08-09T23:45:04.316Z,1.90
2018-08-09T23:50:09.321Z,2.27
2018-08-09T23:55:14.273Z,2.83
